sensor_id;sensor_type;location;lat;lon;timestamp;temperature;humidity
48806;DHT22;34625;47.176;27.548;2023-02-07T00:00:06;21.70;57.00
48806;DHT22;34625;47.176;27.548;2023-02-07T00:02:42;21.70;56.80
48806;DHT22;34625;47.176;27.548;2023-02-07T00:05:08;21.70;57.10
48806;DHT22;34625;47.176;27.548;2023-02-07T00:07:34;21.80;57.00
48806;DHT22;34625;47.176;27.548;2023-02-07T00:10:00;21.70;56.60
48806;DHT22;34625;47.176;27.548;2023-02-07T00:12:26;21.70;56.90
48806;DHT22;34625;47.176;27.548;2023-02-07T00:14:52;21.70;56.80
48806;DHT22;34625;47.176;27.548;2023-02-07T00:17:18;21.70;56.80
48806;DHT22;34625;47.176;27.548;2023-02-07T00:19:44;21.80;56.80
48806;DHT22;34625;47.176;27.548;2023-02-07T00:22:10;21.80;57.20
48806;DHT22;34625;47.176;27.548;2023-02-07T00:24:36;21.80;56.80
48806;DHT22;34625;47.176;27.548;2023-02-07T00:27:02;21.80;56.90
48806;DHT22;34625;47.176;27.548;2023-02-07T00:29:29;21.90;56.70
48806;DHT22;34625;47.176;27.548;2023-02-07T00:31:57;21.90;56.70
48806;DHT22;34625;47.176;27.548;2023-02-07T00:34:23;21.70;56.10
48806;DHT22;34625;47.176;27.548;2023-02-07T00:36:49;21.60;55.70
48806;DHT22;34625;47.176;27.548;2023-02-07T00:39:16;21.60;56.20
48806;DHT22;34625;47.176;27.548;2023-02-07T00:41:43;21.60;56.70
48806;DHT22;34625;47.176;27.548;2023-02-07T00:44:10;21.60;56.50
48806;DHT22;34625;47.176;27.548;2023-02-07T00:46:37;21.60;56.80
48806;DHT22;34625;47.176;27.548;2023-02-07T00:49:04;21.60;56.70
48806;DHT22;34625;47.176;27.548;2023-02-07T00:51:30;21.60;56.70
48806;DHT22;34625;47.176;27.548;2023-02-07T00:53:58;21.40;56.60
48806;DHT22;34625;47.176;27.548;2023-02-07T00:56:26;21.30;56.70
48806;DHT22;34625;47.176;27.548;2023-02-07T00:58:52;21.40;57.20
48806;DHT22;34625;47.176;27.548;2023-02-07T01:01:19;21.30;57.10
48806;DHT22;34625;47.176;27.548;2023-02-07T01:03:45;21.40;56.70
48806;DHT22;34625;47.176;27.548;2023-02-07T01:06:11;21.40;57.10
48806;DHT22;34625;47.176;27.548;2023-02-07T01:08:39;21.50;56.70
48806;DHT22;34625;47.176;27.548;2023-02-07T01:11:10;21.40;56.50
48806;DHT22;34625;47.176;27.548;2023-02-07T01:13:38;21.40;56.70
48806;DHT22;34625;47.176;27.548;2023-02-07T01:16:04;21.40;56.50
48806;DHT22;34625;47.176;27.548;2023-02-07T01:18:30;21.40;56.80
48806;DHT22;34625;47.176;27.548;2023-02-07T01:20:56;21.40;56.70
48806;DHT22;34625;47.176;27.548;2023-02-07T01:23:22;21.30;56.80
48806;DHT22;34625;47.176;27.548;2023-02-07T01:25:48;21.30;56.50
48806;DHT22;34625;47.176;27.548;2023-02-07T01:28:14;21.30;56.60
48806;DHT22;34625;47.176;27.548;2023-02-07T01:30:42;21.30;56.70
48806;DHT22;34625;47.176;27.548;2023-02-07T01:33:09;21.40;56.70
48806;DHT22;34625;47.176;27.548;2023-02-07T01:35:36;21.40;56.20
48806;DHT22;34625;47.176;27.548;2023-02-07T01:38:03;21.40;56.40
48806;DHT22;34625;47.176;27.548;2023-02-07T01:40:30;21.50;56.10
48806;DHT22;34625;47.176;27.548;2023-02-07T01:42:57;21.50;55.80
48806;DHT22;34625;47.176;27.548;2023-02-07T01:45:37;21.40;56.30
48806;DHT22;34625;47.176;27.548;2023-02-07T01:48:29;21.60;55.80
48806;DHT22;34625;47.176;27.548;2023-02-07T01:50:59;21.50;54.40
48806;DHT22;34625;47.176;27.548;2023-02-07T01:53:28;21.60;54.90
48806;DHT22;34625;47.176;27.548;2023-02-07T01:55:56;21.60;55.50
48806;DHT22;34625;47.176;27.548;2023-02-07T01:58:23;21.60;54.20
48806;DHT22;34625;47.176;27.548;2023-02-07T02:00:51;21.40;54.60
48806;DHT22;34625;47.176;27.548;2023-02-07T02:03:17;21.50;54.10
48806;DHT22;34625;47.176;27.548;2023-02-07T02:05:45;21.50;55.10
48806;DHT22;34625;47.176;27.548;2023-02-07T02:08:11;21.50;55.90
48806;DHT22;34625;47.176;27.548;2023-02-07T02:16:44;21.40;55.70
48806;DHT22;34625;47.176;27.548;2023-02-07T02:39:06;21.40;55.90
48806;DHT22;34625;47.176;27.548;2023-02-07T02:41:57;21.40;54.50
48806;DHT22;34625;47.176;27.548;2023-02-07T02:44:30;21.40;54.90
48806;DHT22;34625;47.176;27.548;2023-02-07T02:47:00;21.40;55.60
48806;DHT22;34625;47.176;27.548;2023-02-07T02:49:27;21.40;55.20
48806;DHT22;34625;47.176;27.548;2023-02-07T02:51:55;21.40;54.60
48806;DHT22;34625;47.176;27.548;2023-02-07T02:54:28;21.40;55.70
48806;DHT22;34625;47.176;27.548;2023-02-07T03:12:57;21.30;55.20
48806;DHT22;34625;47.176;27.548;2023-02-07T03:18:08;21.40;55.20
48806;DHT22;34625;47.176;27.548;2023-02-07T03:20:44;21.30;55.20
48806;DHT22;34625;47.176;27.548;2023-02-07T03:23:13;21.40;54.30
48806;DHT22;34625;47.176;27.548;2023-02-07T03:25:40;21.40;54.90
48806;DHT22;34625;47.176;27.548;2023-02-07T03:28:08;21.20;54.90
48806;DHT22;34625;47.176;27.548;2023-02-07T03:30:37;21.20;55.10
48806;DHT22;34625;47.176;27.548;2023-02-07T03:33:05;21.20;55.20
48806;DHT22;34625;47.176;27.548;2023-02-07T03:35:41;21.10;54.70
48806;DHT22;34625;47.176;27.548;2023-02-07T03:38:09;21.20;55.40
48806;DHT22;34625;47.176;27.548;2023-02-07T03:40:51;21.10;55.20
48806;DHT22;34625;47.176;27.548;2023-02-07T03:43:24;21.20;55.10
48806;DHT22;34625;47.176;27.548;2023-02-07T03:45:51;21.10;53.70
48806;DHT22;34625;47.176;27.548;2023-02-07T03:48:18;21.20;54.60
48806;DHT22;34625;47.176;27.548;2023-02-07T03:50:44;21.20;55.10
48806;DHT22;34625;47.176;27.548;2023-02-07T03:53:13;21.20;55.00
48806;DHT22;34625;47.176;27.548;2023-02-07T03:55:39;21.30;54.40
48806;DHT22;34625;47.176;27.548;2023-02-07T03:58:05;21.30;54.70
48806;DHT22;34625;47.176;27.548;2023-02-07T04:00:32;21.40;54.80
48806;DHT22;34625;47.176;27.548;2023-02-07T04:02:58;21.20;54.70
48806;DHT22;34625;47.176;27.548;2023-02-07T04:05:24;21.20;54.90
48806;DHT22;34625;47.176;27.548;2023-02-07T04:07:50;21.30;54.90
48806;DHT22;34625;47.176;27.548;2023-02-07T04:10:16;21.20;54.70
48806;DHT22;34625;47.176;27.548;2023-02-07T04:12:43;21.20;54.40
48806;DHT22;34625;47.176;27.548;2023-02-07T04:15:09;21.10;54.60
48806;DHT22;34625;47.176;27.548;2023-02-07T04:17:35;21.10;54.70
48806;DHT22;34625;47.176;27.548;2023-02-07T04:20:02;21.10;54.70
48806;DHT22;34625;47.176;27.548;2023-02-07T04:22:29;21.10;54.60
48806;DHT22;34625;47.176;27.548;2023-02-07T04:24:55;21.10;54.70
48806;DHT22;34625;47.176;27.548;2023-02-07T04:27:21;21.00;54.70
48806;DHT22;34625;47.176;27.548;2023-02-07T04:29:47;21.00;54.60
48806;DHT22;34625;47.176;27.548;2023-02-07T04:32:13;20.90;54.80
48806;DHT22;34625;47.176;27.548;2023-02-07T04:34:39;21.00;54.70
48806;DHT22;34625;47.176;27.548;2023-02-07T04:37:05;21.00;54.60
48806;DHT22;34625;47.176;27.548;2023-02-07T04:39:31;21.10;54.50
48806;DHT22;34625;47.176;27.548;2023-02-07T04:41:57;21.00;54.50
48806;DHT22;34625;47.176;27.548;2023-02-07T04:44:23;21.10;54.60
48806;DHT22;34625;47.176;27.548;2023-02-07T04:46:49;21.00;54.50
48806;DHT22;34625;47.176;27.548;2023-02-07T04:49:15;21.10;54.70
48806;DHT22;34625;47.176;27.548;2023-02-07T04:51:41;21.10;54.90
48806;DHT22;34625;47.176;27.548;2023-02-07T04:54:07;21.00;54.60
48806;DHT22;34625;47.176;27.548;2023-02-07T04:56:33;21.00;54.70
48806;DHT22;34625;47.176;27.548;2023-02-07T04:58:59;20.90;54.30
48806;DHT22;34625;47.176;27.548;2023-02-07T05:01:25;21.00;54.50
48806;DHT22;34625;47.176;27.548;2023-02-07T05:03:51;21.00;55.00
48806;DHT22;34625;47.176;27.548;2023-02-07T05:06:17;21.00;54.80
48806;DHT22;34625;47.176;27.548;2023-02-07T05:08:43;20.80;54.80
48806;DHT22;34625;47.176;27.548;2023-02-07T05:11:09;20.80;55.10
48806;DHT22;34625;47.176;27.548;2023-02-07T05:13:35;20.80;55.10
48806;DHT22;34625;47.176;27.548;2023-02-07T05:16:02;20.70;55.00
48806;DHT22;34625;47.176;27.548;2023-02-07T05:18:29;20.80;55.10
48806;DHT22;34625;47.176;27.548;2023-02-07T05:20:55;20.80;54.90
48806;DHT22;34625;47.176;27.548;2023-02-07T05:23:21;20.80;55.10
48806;DHT22;34625;47.176;27.548;2023-02-07T05:25:47;20.90;54.60
48806;DHT22;34625;47.176;27.548;2023-02-07T05:28:14;20.90;54.80
48806;DHT22;34625;47.176;27.548;2023-02-07T05:30:40;21.00;54.50
48806;DHT22;34625;47.176;27.548;2023-02-07T05:33:06;21.00;54.30
48806;DHT22;34625;47.176;27.548;2023-02-07T05:35:40;21.20;54.00
48806;DHT22;34625;47.176;27.548;2023-02-07T05:38:09;21.10;54.10
48806;DHT22;34625;47.176;27.548;2023-02-07T05:40:36;21.20;48.50
48806;DHT22;34625;47.176;27.548;2023-02-07T05:43:03;21.20;44.60
48806;DHT22;34625;47.176;27.548;2023-02-07T05:45:29;21.20;41.60
48806;DHT22;34625;47.176;27.548;2023-02-07T05:47:55;21.30;43.60
48806;DHT22;34625;47.176;27.548;2023-02-07T05:50:22;21.40;43.40
48806;DHT22;34625;47.176;27.548;2023-02-07T05:52:48;21.40;45.20
48806;DHT22;34625;47.176;27.548;2023-02-07T05:55:14;21.60;44.20
48806;DHT22;34625;47.176;27.548;2023-02-07T05:57:41;21.50;44.30
48806;DHT22;34625;47.176;27.548;2023-02-07T06:00:09;21.60;46.00
48806;DHT22;34625;47.176;27.548;2023-02-07T06:02:40;21.60;43.90
48806;DHT22;34625;47.176;27.548;2023-02-07T06:05:08;21.70;47.70
48806;DHT22;34625;47.176;27.548;2023-02-07T06:07:35;21.80;57.00
48806;DHT22;34625;47.176;27.548;2023-02-07T06:10:05;22.00;58.60
48806;DHT22;34625;47.176;27.548;2023-02-07T06:12:31;22.40;56.30
48806;DHT22;34625;47.176;27.548;2023-02-07T06:14:57;22.60;54.40
48806;DHT22;34625;47.176;27.548;2023-02-07T06:17:23;22.60;52.30
48806;DHT22;34625;47.176;27.548;2023-02-07T06:19:50;22.70;50.30
48806;DHT22;34625;47.176;27.548;2023-02-07T06:22:16;22.70;49.10
48806;DHT22;34625;47.176;27.548;2023-02-07T06:24:42;22.80;50.20
48806;DHT22;34625;47.176;27.548;2023-02-07T06:27:08;22.80;49.30
48806;DHT22;34625;47.176;27.548;2023-02-07T06:29:34;22.70;52.70
48806;DHT22;34625;47.176;27.548;2023-02-07T06:32:00;22.80;55.50
48806;DHT22;34625;47.176;27.548;2023-02-07T06:34:26;22.80;50.90
48806;DHT22;34625;47.176;27.548;2023-02-07T06:36:52;22.70;53.40
48806;DHT22;34625;47.176;27.548;2023-02-07T06:39:18;22.70;50.10
48806;DHT22;34625;47.176;27.548;2023-02-07T06:41:44;22.50;50.90
48806;DHT22;34625;47.176;27.548;2023-02-07T06:44:10;22.30;46.40
48806;DHT22;34625;47.176;27.548;2023-02-07T06:46:36;22.20;51.70
48806;DHT22;34625;47.176;27.548;2023-02-07T06:49:02;22.30;52.30
48806;DHT22;34625;47.176;27.548;2023-02-07T06:51:29;22.20;51.90
48806;DHT22;34625;47.176;27.548;2023-02-07T06:53:55;22.10;51.80
48806;DHT22;34625;47.176;27.548;2023-02-07T06:56:21;22.20;54.60
48806;DHT22;34625;47.176;27.548;2023-02-07T06:58:47;22.10;52.60
48806;DHT22;34625;47.176;27.548;2023-02-07T07:01:13;22.10;55.40
48806;DHT22;34625;47.176;27.548;2023-02-07T07:03:45;22.10;56.70
48806;DHT22;34625;47.176;27.548;2023-02-07T07:06:12;22.00;56.80
48806;DHT22;34625;47.176;27.548;2023-02-07T07:08:38;21.90;55.60
48806;DHT22;34625;47.176;27.548;2023-02-07T07:11:04;21.80;56.00
48806;DHT22;34625;47.176;27.548;2023-02-07T07:13:30;21.80;57.30
48806;DHT22;34625;47.176;27.548;2023-02-07T07:15:56;21.70;58.60
48806;DHT22;34625;47.176;27.548;2023-02-07T07:18:22;21.70;57.90
48806;DHT22;34625;47.176;27.548;2023-02-07T07:20:54;21.70;58.30
48806;DHT22;34625;47.176;27.548;2023-02-07T07:23:20;21.80;58.10
48806;DHT22;34625;47.176;27.548;2023-02-07T07:25:46;21.80;58.40
48806;DHT22;34625;47.176;27.548;2023-02-07T07:28:12;21.80;58.20
48806;DHT22;34625;47.176;27.548;2023-02-07T07:30:38;21.70;58.60
48806;DHT22;34625;47.176;27.548;2023-02-07T07:33:04;21.60;59.00
48806;DHT22;34625;47.176;27.548;2023-02-07T07:35:30;21.60;59.40
48806;DHT22;34625;47.176;27.548;2023-02-07T07:37:56;21.50;58.70
48806;DHT22;34625;47.176;27.548;2023-02-07T07:40:22;21.40;58.80
48806;DHT22;34625;47.176;27.548;2023-02-07T07:42:48;21.40;58.90
48806;DHT22;34625;47.176;27.548;2023-02-07T07:45:32;21.40;60.40
48806;DHT22;34625;47.176;27.548;2023-02-07T07:47:58;21.40;58.90
48806;DHT22;34625;47.176;27.548;2023-02-07T07:50:24;21.50;60.50
48806;DHT22;34625;47.176;27.548;2023-02-07T07:52:50;21.60;60.00
48806;DHT22;34625;47.176;27.548;2023-02-07T07:55:16;21.60;60.70
48806;DHT22;34625;47.176;27.548;2023-02-07T07:57:42;21.60;60.60
48806;DHT22;34625;47.176;27.548;2023-02-07T08:00:09;21.70;59.20
48806;DHT22;34625;47.176;27.548;2023-02-07T08:02:39;21.60;60.30
48806;DHT22;34625;47.176;27.548;2023-02-07T08:05:05;21.70;59.80
48806;DHT22;34625;47.176;27.548;2023-02-07T08:07:32;21.60;61.10
48806;DHT22;34625;47.176;27.548;2023-02-07T08:09:58;21.70;61.40
48806;DHT22;34625;47.176;27.548;2023-02-07T08:12:24;21.80;60.40
48806;DHT22;34625;47.176;27.548;2023-02-07T08:14:49;21.70;60.50
48806;DHT22;34625;47.176;27.548;2023-02-07T08:17:16;21.60;59.00
48806;DHT22;34625;47.176;27.548;2023-02-07T08:19:42;21.70;60.80
48806;DHT22;34625;47.176;27.548;2023-02-07T08:22:08;21.50;60.80
48806;DHT22;34625;47.176;27.548;2023-02-07T08:24:34;21.60;59.80
48806;DHT22;34625;47.176;27.548;2023-02-07T08:27:01;21.60;58.90
48806;DHT22;34625;47.176;27.548;2023-02-07T08:29:28;21.70;60.10
48806;DHT22;34625;47.176;27.548;2023-02-07T08:31:54;21.50;59.10
48806;DHT22;34625;47.176;27.548;2023-02-07T08:34:20;21.70;60.40
48806;DHT22;34625;47.176;27.548;2023-02-07T08:36:51;21.60;60.10
48806;DHT22;34625;47.176;27.548;2023-02-07T08:39:17;21.70;60.10
48806;DHT22;34625;47.176;27.548;2023-02-07T08:41:43;21.70;57.90
48806;DHT22;34625;47.176;27.548;2023-02-07T08:44:09;21.80;59.40
48806;DHT22;34625;47.176;27.548;2023-02-07T08:46:35;21.80;60.30
48806;DHT22;34625;47.176;27.548;2023-02-07T08:49:02;21.80;56.50
48806;DHT22;34625;47.176;27.548;2023-02-07T08:51:28;21.80;59.80
48806;DHT22;34625;47.176;27.548;2023-02-07T08:53:54;21.80;59.90
48806;DHT22;34625;47.176;27.548;2023-02-07T08:56:20;21.80;58.70
48806;DHT22;34625;47.176;27.548;2023-02-07T08:58:46;21.70;60.10
48806;DHT22;34625;47.176;27.548;2023-02-07T09:01:12;21.70;59.30
48806;DHT22;34625;47.176;27.548;2023-02-07T09:03:38;21.60;59.30
48806;DHT22;34625;47.176;27.548;2023-02-07T09:06:04;21.60;58.10
48806;DHT22;34625;47.176;27.548;2023-02-07T09:08:31;21.50;59.40
48806;DHT22;34625;47.176;27.548;2023-02-07T09:10:57;21.60;60.00
48806;DHT22;34625;47.176;27.548;2023-02-07T09:13:23;21.50;59.40
48806;DHT22;34625;47.176;27.548;2023-02-07T09:15:56;21.50;58.20
48806;DHT22;34625;47.176;27.548;2023-02-07T09:18:23;21.50;58.50
48806;DHT22;34625;47.176;27.548;2023-02-07T09:20:50;21.40;59.40
48806;DHT22;34625;47.176;27.548;2023-02-07T09:23:16;21.40;59.90
48806;DHT22;34625;47.176;27.548;2023-02-07T09:25:47;21.40;58.60
48806;DHT22;34625;47.176;27.548;2023-02-07T09:28:14;21.30;60.20
48806;DHT22;34625;47.176;27.548;2023-02-07T09:30:41;21.30;59.30
48806;DHT22;34625;47.176;27.548;2023-02-07T09:33:08;21.30;59.30
48806;DHT22;34625;47.176;27.548;2023-02-07T09:35:39;21.30;60.10
48806;DHT22;34625;47.176;27.548;2023-02-07T09:38:06;21.40;59.10
48806;DHT22;34625;47.176;27.548;2023-02-07T09:40:34;21.50;59.90
48806;DHT22;34625;47.176;27.548;2023-02-07T09:45:42;21.50;57.70
48806;DHT22;34625;47.176;27.548;2023-02-07T09:48:51;21.60;59.30
48806;DHT22;34625;47.176;27.548;2023-02-07T09:51:21;21.70;57.60
48806;DHT22;34625;47.176;27.548;2023-02-07T09:53:54;21.60;58.30
48806;DHT22;34625;47.176;27.548;2023-02-07T09:56:25;21.80;58.20
48806;DHT22;34625;47.176;27.548;2023-02-07T09:59:00;21.80;56.40
48806;DHT22;34625;47.176;27.548;2023-02-07T10:01:43;21.80;58.60
48806;DHT22;34625;47.176;27.548;2023-02-07T10:06:46;21.80;56.40
48806;DHT22;34625;47.176;27.548;2023-02-07T10:09:15;21.80;58.50
48806;DHT22;34625;47.176;27.548;2023-02-07T10:11:50;21.80;55.90
48806;DHT22;34625;47.176;27.548;2023-02-07T10:27:11;21.80;56.70
48806;DHT22;34625;47.176;27.548;2023-02-07T10:32:30;21.70;58.50
48806;DHT22;34625;47.176;27.548;2023-02-07T10:35:01;21.80;56.90
48806;DHT22;34625;47.176;27.548;2023-02-07T10:37:33;22.00;52.30
48806;DHT22;34625;47.176;27.548;2023-02-07T10:40:23;22.00;44.90
48806;DHT22;34625;47.176;27.548;2023-02-07T10:43:05;22.10;45.20
48806;DHT22;34625;47.176;27.548;2023-02-07T10:45:35;22.00;42.20
48806;DHT22;34625;47.176;27.548;2023-02-07T10:48:12;21.90;40.60
48806;DHT22;34625;47.176;27.548;2023-02-07T10:50:39;21.90;41.40
48806;DHT22;34625;47.176;27.548;2023-02-07T10:53:05;22.00;44.30
48806;DHT22;34625;47.176;27.548;2023-02-07T10:55:43;22.30;48.60
48806;DHT22;34625;47.176;27.548;2023-02-07T10:58:22;22.60;43.20
48806;DHT22;34625;47.176;27.548;2023-02-07T11:00:53;22.50;40.50
48806;DHT22;34625;47.176;27.548;2023-02-07T11:03:23;22.40;40.10
48806;DHT22;34625;47.176;27.548;2023-02-07T11:06:01;22.50;38.90
48806;DHT22;34625;47.176;27.548;2023-02-07T11:08:30;22.40;38.30
48806;DHT22;34625;47.176;27.548;2023-02-07T11:11:16;22.40;38.00
48806;DHT22;34625;47.176;27.548;2023-02-07T11:13:48;22.30;37.60
48806;DHT22;34625;47.176;27.548;2023-02-07T11:16:19;22.30;38.00
48806;DHT22;34625;47.176;27.548;2023-02-07T11:18:55;22.30;38.70
48806;DHT22;34625;47.176;27.548;2023-02-07T11:21:28;22.20;38.50
48806;DHT22;34625;47.176;27.548;2023-02-07T11:23:59;22.30;37.10
48806;DHT22;34625;47.176;27.548;2023-02-07T11:26:26;22.30;37.70
48806;DHT22;34625;47.176;27.548;2023-02-07T11:29:21;22.20;37.80
48806;DHT22;34625;47.176;27.548;2023-02-07T11:31:47;22.30;37.90
48806;DHT22;34625;47.176;27.548;2023-02-07T11:34:28;22.20;37.70
48806;DHT22;34625;47.176;27.548;2023-02-07T11:36:55;22.20;37.00
48806;DHT22;34625;47.176;27.548;2023-02-07T11:39:32;22.20;35.40
48806;DHT22;34625;47.176;27.548;2023-02-07T11:42:00;22.20;44.20
48806;DHT22;34625;47.176;27.548;2023-02-07T11:44:28;22.50;44.70
48806;DHT22;34625;47.176;27.548;2023-02-07T11:46:57;22.70;44.20
48806;DHT22;34625;47.176;27.548;2023-02-07T11:52:02;22.90;41.30
48806;DHT22;34625;47.176;27.548;2023-02-07T11:54:29;22.90;37.40
48806;DHT22;34625;47.176;27.548;2023-02-07T11:59:30;22.80;52.40
48806;DHT22;34625;47.176;27.548;2023-02-07T12:02:00;22.90;52.30
48806;DHT22;34625;47.176;27.548;2023-02-07T12:04:36;22.90;52.60
48806;DHT22;34625;47.176;27.548;2023-02-07T12:07:25;22.70;53.30
48806;DHT22;34625;47.176;27.548;2023-02-07T12:09:53;22.60;52.50
48806;DHT22;34625;47.176;27.548;2023-02-07T12:12:50;22.30;54.20
48806;DHT22;34625;47.176;27.548;2023-02-07T12:18:33;22.30;58.00
48806;DHT22;34625;47.176;27.548;2023-02-07T12:21:01;22.30;57.30
48806;DHT22;34625;47.176;27.548;2023-02-07T12:23:48;22.20;55.20
48806;DHT22;34625;47.176;27.548;2023-02-07T12:29:32;21.90;58.80
48806;DHT22;34625;47.176;27.548;2023-02-07T12:34:37;22.00;56.60
48806;DHT22;34625;47.176;27.548;2023-02-07T12:40:20;21.70;58.40
48806;DHT22;34625;47.176;27.548;2023-02-07T12:43:06;21.80;58.60
48806;DHT22;34625;47.176;27.548;2023-02-07T12:45:57;21.90;57.00
48806;DHT22;34625;47.176;27.548;2023-02-07T13:08:33;21.60;57.60
48806;DHT22;34625;47.176;27.548;2023-02-07T13:11:28;21.70;58.50
48806;DHT22;34625;47.176;27.548;2023-02-07T13:14:53;21.60;58.30
48806;DHT22;34625;47.176;27.548;2023-02-07T13:22:57;21.50;58.40
48806;DHT22;34625;47.176;27.548;2023-02-07T13:25:31;21.50;58.30
48806;DHT22;34625;47.176;27.548;2023-02-07T13:28:02;21.40;59.00
48806;DHT22;34625;47.176;27.548;2023-02-07T13:30:30;21.40;58.20
48806;DHT22;34625;47.176;27.548;2023-02-07T13:33:02;21.40;59.50
48806;DHT22;34625;47.176;27.548;2023-02-07T13:35:31;21.40;58.20
48806;DHT22;34625;47.176;27.548;2023-02-07T13:40:36;21.40;57.40
48806;DHT22;34625;47.176;27.548;2023-02-07T13:43:24;21.40;58.40
48806;DHT22;34625;47.176;27.548;2023-02-07T13:46:06;21.50;58.30
48806;DHT22;34625;47.176;27.548;2023-02-07T13:57:03;21.40;58.20
48806;DHT22;34625;47.176;27.548;2023-02-07T14:02:42;21.50;58.20
48806;DHT22;34625;47.176;27.548;2023-02-07T14:07:57;21.50;58.20
48806;DHT22;34625;47.176;27.548;2023-02-07T14:10:48;21.50;58.60
48806;DHT22;34625;47.176;27.548;2023-02-07T14:18:51;21.60;58.30
48806;DHT22;34625;47.176;27.548;2023-02-07T14:37:51;21.40;58.20
48806;DHT22;34625;47.176;27.548;2023-02-07T14:40:24;21.50;58.30
48806;DHT22;34625;47.176;27.548;2023-02-07T14:43:16;21.50;58.20
48806;DHT22;34625;47.176;27.548;2023-02-07T14:51:10;21.30;58.70
48806;DHT22;34625;47.176;27.548;2023-02-07T14:53:40;21.30;58.70
48806;DHT22;34625;47.176;27.548;2023-02-07T14:56:19;21.30;58.70
48806;DHT22;34625;47.176;27.548;2023-02-07T14:58:51;21.20;58.60
48806;DHT22;34625;47.176;27.548;2023-02-07T15:01:19;21.10;58.20
48806;DHT22;34625;47.176;27.548;2023-02-07T15:03:45;21.10;58.30
48806;DHT22;34625;47.176;27.548;2023-02-07T15:06:24;21.10;58.10
48806;DHT22;34625;47.176;27.548;2023-02-07T15:08:59;21.20;60.60
48806;DHT22;34625;47.176;27.548;2023-02-07T15:11:27;21.40;63.30
48806;DHT22;34625;47.176;27.548;2023-02-07T15:13:58;21.20;64.60
48806;DHT22;34625;47.176;27.548;2023-02-07T15:16:28;21.20;64.40
48806;DHT22;34625;47.176;27.548;2023-02-07T15:19:02;21.30;62.00
48806;DHT22;34625;47.176;27.548;2023-02-07T15:21:54;21.50;52.90
48806;DHT22;34625;47.176;27.548;2023-02-07T15:24:30;21.80;61.10
48806;DHT22;34625;47.176;27.548;2023-02-07T15:26:59;22.00;64.30
48806;DHT22;34625;47.176;27.548;2023-02-07T15:29:28;22.40;64.20
48806;DHT22;34625;47.176;27.548;2023-02-07T15:31:55;22.40;61.80
48806;DHT22;34625;47.176;27.548;2023-02-07T15:34:27;22.40;51.10
48806;DHT22;34625;47.176;27.548;2023-02-07T15:37:13;22.30;46.50
48806;DHT22;34625;47.176;27.548;2023-02-07T15:39:39;22.30;43.70
48806;DHT22;34625;47.176;27.548;2023-02-07T15:42:05;22.40;42.40
48806;DHT22;34625;47.176;27.548;2023-02-07T15:44:46;22.40;41.20
48806;DHT22;34625;47.176;27.548;2023-02-07T15:47:38;22.40;41.00
48806;DHT22;34625;47.176;27.548;2023-02-07T15:50:20;22.50;39.60
48806;DHT22;34625;47.176;27.548;2023-02-07T15:52:52;22.50;39.30
48806;DHT22;34625;47.176;27.548;2023-02-07T15:55:42;22.50;37.90
48806;DHT22;34625;47.176;27.548;2023-02-07T15:58:26;22.50;38.00
48806;DHT22;34625;47.176;27.548;2023-02-07T16:01:01;22.50;36.30
48806;DHT22;34625;47.176;27.548;2023-02-07T16:03:34;22.50;36.30
48806;DHT22;34625;47.176;27.548;2023-02-07T16:08:41;22.50;34.80
48806;DHT22;34625;47.176;27.548;2023-02-07T16:11:15;22.60;34.70
48806;DHT22;34625;47.176;27.548;2023-02-07T16:13:47;22.50;34.90
48806;DHT22;34625;47.176;27.548;2023-02-07T16:16:18;22.50;34.50
48806;DHT22;34625;47.176;27.548;2023-02-07T16:18:46;22.50;44.40
48806;DHT22;34625;47.176;27.548;2023-02-07T16:21:24;22.20;50.00
48806;DHT22;34625;47.176;27.548;2023-02-07T16:23:54;22.10;50.80
48806;DHT22;34625;47.176;27.548;2023-02-07T16:26:24;21.90;51.70
48806;DHT22;34625;47.176;27.548;2023-02-07T16:28:52;21.80;54.40
48806;DHT22;34625;47.176;27.548;2023-02-07T16:31:18;21.80;54.20
48806;DHT22;34625;47.176;27.548;2023-02-07T16:33:44;21.60;51.10
48806;DHT22;34625;47.176;27.548;2023-02-07T16:36:16;21.50;53.30
48806;DHT22;34625;47.176;27.548;2023-02-07T16:38:43;21.50;54.20
48806;DHT22;34625;47.176;27.548;2023-02-07T16:41:28;21.40;52.50
48806;DHT22;34625;47.176;27.548;2023-02-07T16:44:00;21.30;55.70
48806;DHT22;34625;47.176;27.548;2023-02-07T16:46:26;21.20;56.80
48806;DHT22;34625;47.176;27.548;2023-02-07T16:48:52;21.30;54.20
48806;DHT22;34625;47.176;27.548;2023-02-07T16:51:18;21.10;57.30
48806;DHT22;34625;47.176;27.548;2023-02-07T16:53:44;21.10;54.00
48806;DHT22;34625;47.176;27.548;2023-02-07T16:56:13;21.00;57.80
48806;DHT22;34625;47.176;27.548;2023-02-07T16:58:39;21.00;58.90
48806;DHT22;34625;47.176;27.548;2023-02-07T17:01:08;21.10;59.30
48806;DHT22;34625;47.176;27.548;2023-02-07T17:03:36;21.20;59.00
48806;DHT22;34625;47.176;27.548;2023-02-07T17:06:02;21.20;59.20
48806;DHT22;34625;47.176;27.548;2023-02-07T17:08:29;21.20;59.40
48806;DHT22;34625;47.176;27.548;2023-02-07T17:11:01;21.20;59.30
48806;DHT22;34625;47.176;27.548;2023-02-07T17:13:27;21.20;59.20
48806;DHT22;34625;47.176;27.548;2023-02-07T17:15:53;21.30;59.60
48806;DHT22;34625;47.176;27.548;2023-02-07T17:18:19;21.20;60.10
48806;DHT22;34625;47.176;27.548;2023-02-07T17:20:46;21.30;59.90
48806;DHT22;34625;47.176;27.548;2023-02-07T17:23:12;21.30;60.40
48806;DHT22;34625;47.176;27.548;2023-02-07T17:25:38;21.20;59.60
48806;DHT22;34625;47.176;27.548;2023-02-07T17:28:04;21.30;59.50
48806;DHT22;34625;47.176;27.548;2023-02-07T17:30:39;21.30;59.50
48806;DHT22;34625;47.176;27.548;2023-02-07T17:33:06;21.40;59.20
48806;DHT22;34625;47.176;27.548;2023-02-07T17:35:33;21.30;59.20
48806;DHT22;34625;47.176;27.548;2023-02-07T17:37:59;21.20;59.30
48806;DHT22;34625;47.176;27.548;2023-02-07T17:40:29;21.30;59.60
48806;DHT22;34625;47.176;27.548;2023-02-07T17:42:56;21.20;59.90
48806;DHT22;34625;47.176;27.548;2023-02-07T17:45:23;21.10;59.60
48806;DHT22;34625;47.176;27.548;2023-02-07T17:47:50;21.10;59.50
48806;DHT22;34625;47.176;27.548;2023-02-07T17:50:21;21.10;59.90
48806;DHT22;34625;47.176;27.548;2023-02-07T17:52:48;21.10;60.30
48806;DHT22;34625;47.176;27.548;2023-02-07T17:55:14;21.10;60.80
48806;DHT22;34625;47.176;27.548;2023-02-07T17:57:41;21.20;60.20
48806;DHT22;34625;47.176;27.548;2023-02-07T18:02:42;21.20;59.80
48806;DHT22;34625;47.176;27.548;2023-02-07T18:05:08;21.10;60.10
48806;DHT22;34625;47.176;27.548;2023-02-07T18:07:34;21.20;60.20